Carral, Spain
Current Conditions -  °F | °C
As of 6:00 AM on Monday 20 Oct 2014 (Local Time) from LECO Reporting Station
Light Fog Light Fog  
Wind Chill: 55°   Ceiling: Unl
Heat Index: 55°   Visibility: 2.5mi
Dew Point: 55°   Wind: 6mph
Humidity: 100%   Direction: 190°S
Pressure: 30.09"   Gusts: NA
Location:  43.23°N, 8.36°W
Report Text: LECO 200400Z 19005KT 4000 1000E R21/P2000 R03/0650D PRFGFEW001 13/13 Q1019 TEMPO 0800 FG
Loading
Personal Weather Stations






























Interactive Weather Map
Tropical Storm Tracking
New forecast layout! Learn more

10-Day Weather Forecast

Advertisements
Track Severe Weather on mobile